createdAt,value
2022-12-19T00:00:00.415Z,0.00
2022-12-19T00:01:00.416Z,0.00
2022-12-19T00:02:00.489Z,0.00
2022-12-19T00:03:00.594Z,0.00
2022-12-19T00:04:00.440Z,0.00
2022-12-19T00:05:00.355Z,0.00
2022-12-19T00:06:00.373Z,0.00
2022-12-19T00:07:00.328Z,0.00
2022-12-19T00:08:00.564Z,0.00
2022-12-19T00:09:00.343Z,0.00
2022-12-19T00:10:00.330Z,0.00
2022-12-19T00:11:06.909Z,0.00
2022-12-19T00:12:00.309Z,0.00
2022-12-19T00:13:00.288Z,0.00
2022-12-19T00:14:00.297Z,0.00
2022-12-19T00:15:00.250Z,0.00
2022-12-19T00:16:00.356Z,0.00
2022-12-19T00:17:00.234Z,0.00
2022-12-19T00:18:00.222Z,0.00
2022-12-19T00:19:00.235Z,0.00
2022-12-19T00:20:00.204Z,0.00
2022-12-19T00:21:00.208Z,0.00
2022-12-19T00:22:00.188Z,0.00
2022-12-19T00:23:00.164Z,0.00
2022-12-19T00:24:00.168Z,0.00
2022-12-19T00:25:00.162Z,0.00
2022-12-19T00:26:00.160Z,0.00
2022-12-19T00:27:00.130Z,0.00
2022-12-19T00:28:00.126Z,0.00
2022-12-19T00:29:00.114Z,0.00
2022-12-19T00:30:00.153Z,0.00
2022-12-19T00:31:00.108Z,0.00
2022-12-19T00:32:00.232Z,0.00
2022-12-19T00:33:00.108Z,0.00
2022-12-19T00:34:00.093Z,0.00
2022-12-19T00:35:00.043Z,0.00
2022-12-19T00:36:00.073Z,0.00
2022-12-19T00:37:00.044Z,0.00
2022-12-19T00:38:00.025Z,0.00
2022-12-19T00:39:00.049Z,0.00
2022-12-19T00:40:00.017Z,0.00
2022-12-19T00:41:06.511Z,0.00
2022-12-19T00:41:59.983Z,0.00
2022-12-19T00:42:59.997Z,0.00
2022-12-19T00:43:59.966Z,0.00
2022-12-19T00:44:59.974Z,0.00
2022-12-19T00:46:00.022Z,0.00
2022-12-19T00:46:59.965Z,0.00
2022-12-19T00:47:59.929Z,0.00
2022-12-19T00:48:59.947Z,0.00
2022-12-19T00:49:59.922Z,0.00
2022-12-19T00:50:59.888Z,0.00
2022-12-19T00:51:59.897Z,0.00
2022-12-19T00:52:59.893Z,0.00
2022-12-19T00:53:59.897Z,0.00
2022-12-19T00:54:59.909Z,0.00
2022-12-19T00:55:59.871Z,0.00
2022-12-19T00:56:59.842Z,0.00
2022-12-19T00:57:59.850Z,0.00
2022-12-19T00:58:59.847Z,0.00
2022-12-19T00:59:59.810Z,0.00
2022-12-19T01:01:06.409Z,0.00
2022-12-19T01:01:59.881Z,0.00
2022-12-19T01:02:59.910Z,0.00
2022-12-19T01:04:59.777Z,0.00
2022-12-19T01:05:59.772Z,0.00
2022-12-19T01:07:02.481Z,0.00
2022-12-19T01:07:59.746Z,0.00
2022-12-19T01:08:59.738Z,0.00
2022-12-19T01:09:59.747Z,0.00
2022-12-19T01:10:59.708Z,0.00
2022-12-19T01:11:59.691Z,0.00
2022-12-19T01:12:59.688Z,0.00
2022-12-19T01:13:59.673Z,0.00
2022-12-19T01:15:04.286Z,0.00
2022-12-19T01:15:59.704Z,0.00
2022-12-19T01:16:59.627Z,0.00
2022-12-19T01:17:59.645Z,0.00
2022-12-19T01:18:59.609Z,0.00
2022-12-19T01:19:59.613Z,0.00
2022-12-19T01:21:06.119Z,0.00
2022-12-19T01:21:59.605Z,0.00
2022-12-19T01:23:00.526Z,0.00
2022-12-19T01:23:59.573Z,0.00
2022-12-19T01:24:59.571Z,0.00
2022-12-19T01:25:59.807Z,0.00
2022-12-19T01:26:59.538Z,0.00
2022-12-19T01:27:59.531Z,0.00
2022-12-19T01:28:59.523Z,0.00
2022-12-19T01:29:59.501Z,0.00
2022-12-19T01:30:59.495Z,0.00
2022-12-19T01:31:59.595Z,0.00
2022-12-19T01:32:59.489Z,0.00
2022-12-19T01:33:59.481Z,0.00
2022-12-19T01:34:59.451Z,0.00
2022-12-19T01:35:59.439Z,0.00
2022-12-19T01:36:59.423Z,0.00
2022-12-19T01:38:07.739Z,0.00
2022-12-19T01:38:59.409Z,0.00
2022-12-19T01:39:59.408Z,0.00
2022-12-19T01:40:59.412Z,0.00
2022-12-19T01:41:59.386Z,0.00
2022-12-19T01:42:59.385Z,0.00
2022-12-19T01:43:59.356Z,0.00
2022-12-19T01:44:59.427Z,0.00
2022-12-19T01:45:59.428Z,0.00
2022-12-19T01:46:59.337Z,0.00
2022-12-19T01:47:59.316Z,0.00
2022-12-19T01:48:59.299Z,0.00
2022-12-19T01:49:59.294Z,0.00
2022-12-19T01:51:01.302Z,0.00
2022-12-19T01:51:59.265Z,0.00
2022-12-19T01:52:59.268Z,0.00
2022-12-19T01:53:59.240Z,0.00
2022-12-19T01:54:59.263Z,0.00
2022-12-19T01:55:59.252Z,0.00
2022-12-19T01:56:59.192Z,0.00
2022-12-19T01:57:59.174Z,0.00
2022-12-19T01:59:05.775Z,0.00
2022-12-19T01:59:59.184Z,0.00
2022-12-19T02:01:05.816Z,0.00
2022-12-19T02:01:59.461Z,0.00
2022-12-19T02:02:59.340Z,0.00
2022-12-19T02:03:59.161Z,0.00
2022-12-19T02:04:59.135Z,0.00
2022-12-19T02:05:59.113Z,0.00
2022-12-19T02:06:59.114Z,0.00
2022-12-19T02:07:59.102Z,0.00
2022-12-19T02:08:59.099Z,0.00
2022-12-19T02:09:59.056Z,0.00
2022-12-19T02:10:59.067Z,0.00
2022-12-19T02:11:59.053Z,0.00
2022-12-19T02:12:59.035Z,0.00
2022-12-19T02:13:59.029Z,0.00
2022-12-19T02:15:03.143Z,0.00
2022-12-19T02:15:59.003Z,0.00
2022-12-19T02:16:59.068Z,0.00
2022-12-19T02:17:58.974Z,0.00
2022-12-19T02:18:59.006Z,0.00
2022-12-19T02:19:58.957Z,0.00
2022-12-19T02:20:58.974Z,0.00
2022-12-19T02:21:58.946Z,0.00
2022-12-19T02:22:58.961Z,0.00
2022-12-19T02:23:58.945Z,0.00
2022-12-19T02:24:58.928Z,0.00
2022-12-19T02:25:59.127Z,0.00
2022-12-19T02:26:58.894Z,0.00
2022-12-19T02:27:58.889Z,0.00
2022-12-19T02:29:05.415Z,0.00
2022-12-19T02:29:58.875Z,0.00
2022-12-19T02:31:05.391Z,0.00
2022-12-19T02:31:58.874Z,0.00
2022-12-19T02:32:58.850Z,0.00
2022-12-19T02:33:58.884Z,0.00
2022-12-19T02:34:58.816Z,0.00
2022-12-19T02:35:58.797Z,0.00
2022-12-19T02:36:58.790Z,0.00
2022-12-19T02:37:58.795Z,0.00
2022-12-19T02:38:58.777Z,0.00
2022-12-19T02:39:58.795Z,0.00
2022-12-19T02:40:58.776Z,0.00
2022-12-19T02:41:58.746Z,0.00
2022-12-19T02:42:58.774Z,0.00
2022-12-19T02:43:59.213Z,0.00
2022-12-19T02:44:58.709Z,0.00
2022-12-19T02:45:58.707Z,0.00
2022-12-19T02:46:58.703Z,0.00
2022-12-19T02:47:58.691Z,0.00
2022-12-19T02:48:58.676Z,0.00
2022-12-19T02:49:58.672Z,0.00
2022-12-19T02:50:58.687Z,0.00
2022-12-19T02:51:58.629Z,0.00
2022-12-19T02:52:58.626Z,0.00
2022-12-19T02:53:58.630Z,0.00
2022-12-19T02:54:58.590Z,0.00
2022-12-19T02:55:58.605Z,0.00
2022-12-19T02:56:58.627Z,0.00
2022-12-19T02:57:58.568Z,0.00
2022-12-19T02:58:58.605Z,0.00
2022-12-19T02:59:58.571Z,0.00
2022-12-19T03:00:58.591Z,0.00
2022-12-19T03:01:58.731Z,0.00
2022-12-19T03:03:01.022Z,0.00
2022-12-19T03:03:58.517Z,0.00
2022-12-19T03:04:58.541Z,0.00
2022-12-19T03:05:58.491Z,0.00
2022-12-19T03:06:58.486Z,0.00
2022-12-19T03:07:58.458Z,0.00
2022-12-19T03:08:58.459Z,0.00
2022-12-19T03:09:58.453Z,0.00
2022-12-19T03:10:58.457Z,0.00
2022-12-19T03:11:58.431Z,0.00
2022-12-19T03:12:58.401Z,0.00
2022-12-19T03:13:58.399Z,0.00
2022-12-19T03:14:58.380Z,0.00
2022-12-19T03:15:58.375Z,0.00
2022-12-19T03:16:58.391Z,0.00
2022-12-19T03:17:58.356Z,0.00
2022-12-19T03:18:58.358Z,0.00
2022-12-19T03:19:58.311Z,0.00
2022-12-19T03:20:58.348Z,0.00
2022-12-19T03:21:58.310Z,0.00
2022-12-19T03:22:58.292Z,0.00
2022-12-19T03:23:58.271Z,0.00
2022-12-19T03:24:58.292Z,0.00
2022-12-19T03:25:58.259Z,0.00
2022-12-19T03:26:58.251Z,0.00
2022-12-19T03:27:58.252Z,0.00
2022-12-19T03:28:58.225Z,0.00
2022-12-19T03:29:58.203Z,0.00
2022-12-19T03:30:58.253Z,0.00
2022-12-19T03:31:58.225Z,0.00
2022-12-19T03:32:58.179Z,0.00
2022-12-19T03:33:58.185Z,0.00
2022-12-19T03:34:58.178Z,0.00
2022-12-19T03:35:58.197Z,0.00
2022-12-19T03:36:58.170Z,0.00
2022-12-19T03:37:58.157Z,0.00
2022-12-19T03:38:58.110Z,0.00
2022-12-19T03:39:58.142Z,0.00
2022-12-19T03:40:58.122Z,0.00
2022-12-19T03:41:58.150Z,0.00
2022-12-19T03:42:58.070Z,0.00
2022-12-19T03:43:58.064Z,0.00
2022-12-19T03:44:58.067Z,0.00
2022-12-19T03:45:58.100Z,0.00
2022-12-19T03:46:58.053Z,0.00
2022-12-19T03:47:58.025Z,0.00
2022-12-19T03:48:58.023Z,0.00
2022-12-19T03:49:58.027Z,0.00
2022-12-19T03:50:58.019Z,0.00
2022-12-19T03:51:59.596Z,0.00
2022-12-19T03:52:57.987Z,0.00
2022-12-19T03:53:57.962Z,0.00
2022-12-19T03:54:57.940Z,0.00
2022-12-19T03:55:57.938Z,0.00
2022-12-19T03:56:58.794Z,0.00
2022-12-19T03:57:57.921Z,0.00
2022-12-19T03:58:57.928Z,0.00
2022-12-19T03:59:57.934Z,0.00
2022-12-19T04:00:58.321Z,0.00
2022-12-19T04:01:57.944Z,0.00
2022-12-19T04:02:57.891Z,0.00
2022-12-19T04:03:57.932Z,0.00
2022-12-19T04:04:57.858Z,0.00
2022-12-19T04:05:57.834Z,0.00
2022-12-19T04:06:57.892Z,0.00
2022-12-19T04:07:57.830Z,0.00
2022-12-19T04:08:57.793Z,0.00
2022-12-19T04:09:57.806Z,0.00
2022-12-19T04:10:57.790Z,0.00
2022-12-19T04:11:57.790Z,0.00
2022-12-19T04:12:57.776Z,0.00
2022-12-19T04:13:57.759Z,0.00
2022-12-19T04:14:57.750Z,0.00
2022-12-19T04:15:57.783Z,0.00
2022-12-19T04:16:57.710Z,0.00
2022-12-19T04:17:57.714Z,0.00
2022-12-19T04:18:57.709Z,0.00
2022-12-19T04:19:57.697Z,0.00
2022-12-19T04:20:57.704Z,0.00
2022-12-19T04:21:57.669Z,0.00
2022-12-19T04:22:57.658Z,0.00
2022-12-19T04:23:57.649Z,0.00
2022-12-19T04:24:57.741Z,0.00
2022-12-19T04:25:57.635Z,0.00
2022-12-19T04:26:57.637Z,0.00
2022-12-19T04:27:57.604Z,0.00
2022-12-19T04:28:57.616Z,0.00
2022-12-19T04:29:57.606Z,0.00
2022-12-19T04:30:57.594Z,0.00
2022-12-19T04:31:57.561Z,0.00
2022-12-19T04:32:57.555Z,0.00
2022-12-19T04:33:57.534Z,0.00
2022-12-19T04:34:57.535Z,0.00
2022-12-19T04:35:57.507Z,0.00
2022-12-19T04:36:57.495Z,0.00
2022-12-19T04:37:57.551Z,0.00
2022-12-19T04:38:57.501Z,0.00
2022-12-19T04:39:57.505Z,0.00
2022-12-19T04:41:03.989Z,0.00
2022-12-19T04:41:57.444Z,0.00
2022-12-19T04:42:57.432Z,0.00
2022-12-19T04:43:57.461Z,0.00
2022-12-19T04:44:57.473Z,0.00
2022-12-19T04:45:57.913Z,0.00
2022-12-19T04:46:57.382Z,0.00
2022-12-19T04:47:57.380Z,0.00
2022-12-19T04:48:57.384Z,0.00
2022-12-19T04:49:57.373Z,0.00
2022-12-19T04:50:57.361Z,0.00
2022-12-19T04:51:57.358Z,0.00
2022-12-19T04:52:57.408Z,0.00
2022-12-19T04:53:57.329Z,0.00
2022-12-19T04:54:57.301Z,0.00
2022-12-19T04:55:57.278Z,0.00
2022-12-19T04:56:57.265Z,0.00
2022-12-19T04:57:57.268Z,0.00
2022-12-19T04:58:57.253Z,0.00
2022-12-19T04:59:57.303Z,0.00
2022-12-19T05:00:57.217Z,0.00
2022-12-19T05:01:57.284Z,0.00
2022-12-19T05:02:57.420Z,0.00
2022-12-19T05:04:02.817Z,0.00
2022-12-19T05:04:57.218Z,0.00
2022-12-19T05:05:57.201Z,0.00
2022-12-19T05:06:57.167Z,0.00
2022-12-19T05:07:57.157Z,0.00
2022-12-19T05:08:57.188Z,0.00
2022-12-19T05:09:57.141Z,0.00
2022-12-19T05:11:03.692Z,0.00
2022-12-19T05:11:57.124Z,0.00
2022-12-19T05:12:57.109Z,0.00
2022-12-19T05:13:57.082Z,0.00
2022-12-19T05:14:57.077Z,0.00
2022-12-19T05:15:57.143Z,0.00
2022-12-19T05:17:01.302Z,0.00
2022-12-19T05:17:57.062Z,0.00
2022-12-19T05:18:57.038Z,0.00
2022-12-19T05:19:57.033Z,0.00
2022-12-19T05:20:57.010Z,0.00
2022-12-19T05:21:56.988Z,0.00
2022-12-19T05:22:56.978Z,0.00
2022-12-19T05:23:56.992Z,0.00
2022-12-19T05:24:56.973Z,0.00
2022-12-19T05:25:56.954Z,0.00
2022-12-19T05:26:56.959Z,0.00
2022-12-19T05:27:56.916Z,0.00
2022-12-19T05:28:56.929Z,0.00
2022-12-19T05:29:57.038Z,0.00
2022-12-19T05:31:04.030Z,0.00
2022-12-19T05:31:57.334Z,0.00
2022-12-19T05:32:56.863Z,0.00
2022-12-19T05:33:56.852Z,0.00
2022-12-19T05:34:56.894Z,0.00
2022-12-19T05:35:56.835Z,0.00
2022-12-19T05:36:56.809Z,0.00
2022-12-19T05:37:56.832Z,0.00
2022-12-19T05:38:56.808Z,0.00
2022-12-19T05:39:56.904Z,0.00
2022-12-19T05:40:56.764Z,0.00
2022-12-19T05:41:56.785Z,0.00
2022-12-19T05:42:56.759Z,0.00
2022-12-19T05:43:56.737Z,0.00
2022-12-19T05:44:56.869Z,0.00
2022-12-19T05:45:56.710Z,0.00
2022-12-19T05:46:56.780Z,0.00
2022-12-19T05:48:01.162Z,0.00
2022-12-19T05:48:56.680Z,0.00
2022-12-19T05:49:56.690Z,0.00
2022-12-19T05:51:03.184Z,0.00
2022-12-19T05:51:56.668Z,0.00
2022-12-19T05:52:56.628Z,0.00
2022-12-19T05:53:56.637Z,0.00
2022-12-19T05:54:56.689Z,0.00
2022-12-19T05:55:56.621Z,0.00
2022-12-19T05:56:56.576Z,0.00
2022-12-19T05:57:56.620Z,0.00
2022-12-19T05:58:56.577Z,0.00
2022-12-19T05:59:56.544Z,0.00
2022-12-19T06:01:00.678Z,0.00
2022-12-19T06:01:56.576Z,0.00
2022-12-19T06:02:56.723Z,0.00
2022-12-19T06:03:56.556Z,0.00
2022-12-19T06:04:56.586Z,0.00
2022-12-19T06:05:56.513Z,0.00
2022-12-19T06:06:56.472Z,0.00
2022-12-19T06:07:56.450Z,0.00
2022-12-19T06:08:56.447Z,0.00
2022-12-19T06:09:56.533Z,0.00
2022-12-19T06:10:56.485Z,0.00
2022-12-19T06:11:56.433Z,0.00
2022-12-19T06:12:56.402Z,0.00
2022-12-19T06:13:56.398Z,0.00
2022-12-19T06:14:56.477Z,0.00
2022-12-19T06:15:56.466Z,0.00
2022-12-19T06:16:56.360Z,0.00
2022-12-19T06:17:56.366Z,0.00
2022-12-19T06:18:56.325Z,0.00
2022-12-19T06:19:56.471Z,0.00
2022-12-19T06:20:56.310Z,0.00
2022-12-19T06:21:56.309Z,0.00
2022-12-19T06:22:56.286Z,0.00
2022-12-19T06:23:56.270Z,0.00
2022-12-19T06:24:56.278Z,0.00
2022-12-19T06:25:56.235Z,0.00
2022-12-19T06:26:56.246Z,0.00
2022-12-19T06:27:56.246Z,0.00
2022-12-19T06:28:56.223Z,0.00
2022-12-19T06:29:56.198Z,0.00
2022-12-19T06:30:56.206Z,0.00
2022-12-19T06:31:56.202Z,0.00
2022-12-19T06:32:56.188Z,0.00
2022-12-19T06:33:56.163Z,0.00
2022-12-19T06:35:04.005Z,0.00
2022-12-19T06:35:56.140Z,0.00
2022-12-19T06:36:56.121Z,0.00
2022-12-19T06:38:00.841Z,0.00
2022-12-19T06:38:57.515Z,0.00
2022-12-19T06:39:56.078Z,0.00
2022-12-19T06:40:56.087Z,0.00
2022-12-19T06:41:56.124Z,0.00
2022-12-19T06:42:56.047Z,0.00
2022-12-19T06:43:56.035Z,0.00
2022-12-19T06:44:56.486Z,0.00
2022-12-19T06:45:56.062Z,0.00
2022-12-19T06:46:59.049Z,0.00
2022-12-19T06:47:55.993Z,0.00
2022-12-19T06:48:56.004Z,0.00
2022-12-19T06:49:56.937Z,0.00
2022-12-19T06:50:55.982Z,0.00
2022-12-19T06:51:55.971Z,0.00
2022-12-19T06:52:55.924Z,0.00
2022-12-19T06:53:55.951Z,0.00
2022-12-19T06:54:55.903Z,0.00
2022-12-19T06:55:55.909Z,0.00
2022-12-19T06:56:55.887Z,0.00
2022-12-19T06:57:55.877Z,0.00
2022-12-19T06:58:55.870Z,0.00
2022-12-19T06:59:55.871Z,0.00
2022-12-19T07:01:02.470Z,0.00
2022-12-19T07:01:55.940Z,0.00
2022-12-19T07:02:55.860Z,0.00
2022-12-19T07:03:55.811Z,0.00
2022-12-19T07:04:55.820Z,0.00
2022-12-19T07:05:55.795Z,4.00
2022-12-19T07:06:55.789Z,4.00
2022-12-19T07:07:55.761Z,4.00
2022-12-19T07:08:55.798Z,4.00
2022-12-19T07:09:55.736Z,4.00
2022-12-19T07:10:55.844Z,8.00
2022-12-19T07:11:55.714Z,8.00
2022-12-19T07:12:55.807Z,12.00
2022-12-19T07:13:55.697Z,12.00
2022-12-19T07:14:55.729Z,12.00
2022-12-19T07:15:55.858Z,12.00
2022-12-19T07:16:55.648Z,16.00
2022-12-19T07:17:55.643Z,20.00
2022-12-19T07:18:55.620Z,24.00
2022-12-19T07:19:55.636Z,24.00
2022-12-19T07:20:55.645Z,28.00
2022-12-19T07:21:55.595Z,28.00
2022-12-19T07:22:55.592Z,28.00
2022-12-19T07:23:55.554Z,32.00
2022-12-19T07:24:55.579Z,36.00
2022-12-19T07:25:55.533Z,36.00
2022-12-19T07:26:55.556Z,40.00
2022-12-19T07:27:55.520Z,40.00
2022-12-19T07:28:55.531Z,40.00
2022-12-19T07:29:55.483Z,44.00
2022-12-19T07:31:02.052Z,44.00
2022-12-19T07:31:55.710Z,48.00
2022-12-19T07:32:55.469Z,48.00
2022-12-19T07:33:55.459Z,48.00
2022-12-19T07:34:55.462Z,56.00
2022-12-19T07:35:55.412Z,60.00
2022-12-19T07:36:55.411Z,64.00
2022-12-19T07:37:55.393Z,76.00
2022-12-19T07:38:55.392Z,84.00
2022-12-19T07:39:55.383Z,92.00
2022-12-19T07:40:55.366Z,96.00
2022-12-19T07:41:55.359Z,100.00
2022-12-19T07:42:55.344Z,104.00
2022-12-19T07:43:55.361Z,108.00
2022-12-19T07:44:55.318Z,112.00
2022-12-19T07:45:55.455Z,124.00
2022-12-19T07:46:55.302Z,140.00
2022-12-19T07:47:55.306Z,156.00
2022-12-19T07:48:55.278Z,168.00
2022-12-19T07:49:55.252Z,180.00
2022-12-19T07:51:01.796Z,180.00
2022-12-19T07:51:55.231Z,180.00
2022-12-19T07:52:55.293Z,188.00
2022-12-19T07:53:55.206Z,192.00
2022-12-19T07:54:55.205Z,204.00
2022-12-19T07:55:55.190Z,208.00
2022-12-19T07:56:55.199Z,212.00
2022-12-19T07:57:55.160Z,224.00
2022-12-19T07:58:55.424Z,236.00
2022-12-19T07:59:55.156Z,260.00
2022-12-19T08:00:55.166Z,272.00
2022-12-19T08:01:55.311Z,280.00
2022-12-19T08:02:55.223Z,292.00
2022-12-19T08:03:55.107Z,292.00
2022-12-19T08:04:55.113Z,300.00
2022-12-19T08:05:55.071Z,300.00
2022-12-19T08:06:55.079Z,320.00
2022-12-19T08:07:55.050Z,328.00
2022-12-19T08:08:55.084Z,332.00
2022-12-19T08:09:55.054Z,336.00
2022-12-19T08:10:55.040Z,360.00
2022-12-19T08:11:55.023Z,392.00
2022-12-19T08:12:55.017Z,420.00
2022-12-19T08:13:55.018Z,448.00
2022-12-19T08:14:57.281Z,452.00
2022-12-19T08:15:54.959Z,440.00
2022-12-19T08:17:19.808Z,424.00
2022-12-19T08:17:54.991Z,448.00
2022-12-19T08:18:54.939Z,488.00
2022-12-19T08:19:54.969Z,504.00
2022-12-19T08:20:54.929Z,488.00
2022-12-19T08:21:54.931Z,464.00
2022-12-19T08:22:54.887Z,480.00
2022-12-19T08:23:54.887Z,508.00
2022-12-19T08:24:54.861Z,528.00
2022-12-19T08:25:54.879Z,532.00
2022-12-19T08:26:54.895Z,520.00
2022-12-19T08:27:54.835Z,536.00
2022-12-19T08:28:54.849Z,584.00
2022-12-19T08:29:54.820Z,640.00
2022-12-19T08:30:54.944Z,664.00
2022-12-19T08:31:54.795Z,688.00
2022-12-19T08:32:54.819Z,720.00
2022-12-19T08:33:54.799Z,772.00
2022-12-19T08:34:54.752Z,820.00
2022-12-19T08:35:54.764Z,816.00
2022-12-19T08:36:54.728Z,756.00
2022-12-19T08:37:54.739Z,740.00
2022-12-19T08:38:54.730Z,740.00
2022-12-19T08:39:54.701Z,700.00
2022-12-19T08:40:54.705Z,680.00
2022-12-19T08:41:54.695Z,700.00
2022-12-19T08:42:54.680Z,740.00
2022-12-19T08:43:54.672Z,776.00
2022-12-19T08:44:54.640Z,816.00
2022-12-19T08:45:54.744Z,868.00
2022-12-19T08:46:54.663Z,948.00
2022-12-19T08:47:54.653Z,1028.00
2022-12-19T08:48:54.604Z,1108.00
2022-12-19T08:49:54.604Z,1184.00
2022-12-19T08:50:54.596Z,1248.00
2022-12-19T08:51:54.570Z,1316.00
2022-12-19T08:52:54.604Z,1388.00
2022-12-19T08:53:54.557Z,1424.00
2022-12-19T08:54:54.554Z,1472.00
2022-12-19T08:55:54.514Z,1504.00
2022-12-19T08:56:54.540Z,1552.00
2022-12-19T08:57:54.530Z,1564.00
2022-12-19T08:58:54.515Z,1548.00
2022-12-19T08:59:54.470Z,1468.00
2022-12-19T09:00:58.902Z,1400.00
2022-12-19T09:01:54.583Z,1376.00
2022-12-19T09:02:54.539Z,1300.00
2022-12-19T09:05:11.787Z,1280.00
2022-12-19T09:06:08.140Z,1368.00
2022-12-19T09:06:18.628Z,1676.00
2022-12-19T09:07:15.519Z,1904.00
2022-12-19T09:08:13.468Z,2032.00
2022-12-19T09:09:13.463Z,2040.00
2022-12-19T09:10:13.438Z,2028.00
2022-12-19T09:11:13.419Z,2004.00
2022-12-19T09:12:13.407Z,2036.00
2022-12-19T09:13:13.431Z,2120.00
2022-12-19T09:14:13.373Z,2100.00
2022-12-19T09:15:13.395Z,2012.00
2022-12-19T09:16:13.421Z,1992.00
2022-12-19T09:17:13.443Z,2004.00
2022-12-19T09:18:13.352Z,2020.00
2022-12-19T09:19:13.355Z,2068.00
2022-12-19T09:20:15.790Z,2112.00
2022-12-19T09:21:13.324Z,2048.00
2022-12-19T09:22:13.319Z,1936.00
2022-12-19T09:23:13.295Z,1848.00
2022-12-19T09:24:13.302Z,1768.00
2022-12-19T09:25:13.289Z,1708.00
2022-12-19T09:26:13.275Z,1676.00
2022-12-19T09:27:14.165Z,1688.00
2022-12-19T09:28:28.689Z,1744.00
2022-12-19T09:29:19.774Z,1824.00
2022-12-19T09:30:13.250Z,1864.00
2022-12-19T09:31:13.239Z,1880.00
2022-12-19T09:32:13.216Z,1792.00
2022-12-19T09:33:13.208Z,1640.00
2022-12-19T09:34:13.204Z,1568.00
2022-12-19T09:35:13.574Z,1568.00
2022-12-19T09:36:13.159Z,1648.00
2022-12-19T09:37:16.323Z,1716.00
2022-12-19T09:38:13.119Z,1664.00
2022-12-19T09:39:13.122Z,1592.00
2022-12-19T09:40:13.127Z,1516.00
2022-12-19T09:41:19.652Z,1408.00
2022-12-19T09:42:13.102Z,1296.00
2022-12-19T09:43:13.058Z,1248.00
2022-12-19T09:44:13.078Z,1308.00
2022-12-19T09:45:14.681Z,1332.00
2022-12-19T09:46:13.144Z,1392.00
2022-12-19T09:47:13.096Z,1384.00
2022-12-19T09:48:17.753Z,1364.00
2022-12-19T09:49:13.015Z,1380.00
2022-12-19T09:50:13.013Z,1344.00
2022-12-19T09:51:12.984Z,1244.00
2022-12-19T09:52:12.980Z,1156.00
2022-12-19T09:53:12.983Z,1120.00
2022-12-19T09:54:12.980Z,1108.00
2022-12-19T09:55:13.969Z,1136.00
2022-12-19T09:56:12.946Z,1240.00
2022-12-19T09:57:12.938Z,1428.00
2022-12-19T09:58:12.926Z,1708.00
2022-12-19T09:59:12.951Z,1864.00
2022-12-19T10:00:12.899Z,1852.00
2022-12-19T10:01:12.901Z,1900.00
2022-12-19T10:02:14.078Z,1728.00
2022-12-19T10:03:13.147Z,1624.00
2022-12-19T10:04:12.856Z,1668.00
2022-12-19T10:05:32.304Z,1832.00
2022-12-19T10:07:12.990Z,1968.00
2022-12-19T10:07:54.728Z,1924.00
2022-12-19T10:08:12.840Z,1892.00
2022-12-19T10:10:16.537Z,1856.00
2022-12-19T10:12:51.079Z,1760.00
2022-12-19T10:12:59.616Z,1812.00
2022-12-19T10:13:51.340Z,1872.00
2022-12-19T10:14:51.350Z,1968.00
2022-12-19T10:16:00.362Z,1916.00
2022-12-19T10:17:22.056Z,1948.00
2022-12-19T10:17:51.366Z,2084.00
2022-12-19T10:18:56.498Z,2268.00
2022-12-19T10:19:51.290Z,2372.00
2022-12-19T10:20:51.269Z,2332.00
2022-12-19T10:22:16.903Z,2140.00
2022-12-19T10:22:51.253Z,2204.00
2022-12-19T10:23:53.984Z,2376.00
2022-12-19T10:25:08.363Z,2448.00
2022-12-19T10:25:51.220Z,2404.00
2022-12-19T10:26:51.977Z,2456.00
2022-12-19T10:27:59.888Z,2464.00
2022-12-19T10:28:51.200Z,2440.00
2022-12-19T10:29:51.186Z,2368.00
2022-12-19T10:30:51.307Z,2200.00
2022-12-19T10:31:53.751Z,2128.00
2022-12-19T10:32:51.141Z,2140.00
2022-12-19T10:33:51.130Z,2196.00
2022-12-19T10:34:51.167Z,2196.00
2022-12-19T10:35:51.110Z,2176.00
2022-12-19T10:37:51.093Z,2508.00
2022-12-19T10:38:52.013Z,2808.00
2022-12-19T10:39:51.090Z,3200.00
2022-12-19T10:40:51.055Z,3672.00
2022-12-19T10:41:51.030Z,4008.00
2022-12-19T10:42:51.034Z,4300.00
2022-12-19T10:43:51.060Z,4676.00
2022-12-19T10:44:51.011Z,5212.00
2022-12-19T10:45:50.996Z,5544.00
2022-12-19T10:46:51.028Z,5760.00
2022-12-19T10:47:50.975Z,5808.00
2022-12-19T10:48:51.068Z,5740.00
2022-12-19T10:49:50.939Z,5632.00
2022-12-19T10:50:50.983Z,5632.00
2022-12-19T10:51:52.431Z,5696.00
2022-12-19T10:52:50.904Z,5812.00
2022-12-19T10:53:50.934Z,5848.00
2022-12-19T10:54:51.501Z,5852.00
2022-12-19T10:55:50.912Z,5624.00
2022-12-19T10:56:50.894Z,5200.00
2022-12-19T10:57:50.879Z,4760.00
2022-12-19T10:58:50.924Z,4508.00
2022-12-19T10:59:50.831Z,4136.00
2022-12-19T11:00:50.842Z,3460.00
2022-12-19T11:01:54.176Z,2712.00
2022-12-19T11:02:51.004Z,2292.00
2022-12-19T11:03:50.870Z,2188.00
2022-12-19T11:04:50.875Z,2312.00
2022-12-19T11:05:57.845Z,2404.00
2022-12-19T11:06:50.792Z,2448.00
2022-12-19T11:07:50.771Z,2392.00
2022-12-19T11:08:50.731Z,2256.00
2022-12-19T11:10:05.348Z,2260.00
2022-12-19T11:15:18.538Z,2360.00
2022-12-19T11:30:05.776Z,2500.00
2022-12-19T11:32:39.772Z,2016.00
2022-12-19T11:32:47.167Z,1952.00
2022-12-19T11:33:40.294Z,2028.00
2022-12-19T11:34:40.283Z,1904.00
2022-12-19T11:35:40.239Z,1840.00
2022-12-19T11:36:40.280Z,1856.00
2022-12-19T11:37:40.211Z,2080.00
2022-12-19T11:38:40.243Z,2440.00
2022-12-19T11:39:40.216Z,2612.00
2022-12-19T11:40:44.930Z,2536.00
2022-12-19T11:41:40.222Z,2428.00
2022-12-19T11:42:40.156Z,2480.00
2022-12-19T11:43:45.295Z,2480.00
2022-12-19T11:44:40.171Z,2412.00
2022-12-19T11:45:40.174Z,2408.00
2022-12-19T11:46:40.139Z,2340.00
2022-12-19T11:47:40.116Z,2252.00
2022-12-19T11:48:40.079Z,2200.00
2022-12-19T11:49:40.090Z,2336.00
2022-12-19T11:50:40.121Z,2524.00
2022-12-19T11:51:40.104Z,2628.00
2022-12-19T11:53:40.055Z,3020.00
2022-12-19T11:54:40.038Z,3224.00
2022-12-19T11:55:40.126Z,3464.00
2022-12-19T11:56:40.001Z,3844.00
2022-12-19T11:57:40.013Z,4520.00
2022-12-19T11:58:39.985Z,5252.00
2022-12-19T11:59:40.001Z,5732.00
2022-12-19T12:00:40.002Z,5660.00
2022-12-19T12:01:39.995Z,5380.00
2022-12-19T12:02:39.929Z,5180.00
2022-12-19T12:03:40.363Z,5008.00
2022-12-19T12:04:39.973Z,5196.00
2022-12-19T12:05:39.924Z,5468.00
2022-12-19T12:06:45.247Z,5596.00
2022-12-19T12:07:59.098Z,5428.00
2022-12-19T12:12:30.804Z,5072.00
2022-12-19T12:31:06.436Z,4560.00
2022-12-19T12:35:56.478Z,5384.00
2022-12-19T12:38:21.662Z,4544.00
2022-12-19T12:39:04.198Z,4656.00
2022-12-19T12:40:04.060Z,4848.00
2022-12-19T12:41:03.864Z,5200.00
2022-12-19T12:42:03.838Z,5612.00
2022-12-19T12:43:03.828Z,5936.00
2022-12-19T12:44:03.812Z,6128.00
2022-12-19T12:45:03.804Z,6204.00
2022-12-19T12:46:03.894Z,6120.00
2022-12-19T12:47:03.782Z,5820.00
2022-12-19T12:48:03.777Z,5364.00
2022-12-19T12:49:03.768Z,4864.00
2022-12-19T12:50:03.760Z,4608.00
2022-12-19T12:51:03.738Z,4676.00
2022-12-19T12:52:03.719Z,4844.00
2022-12-19T12:53:03.729Z,4916.00
2022-12-19T12:54:03.713Z,4984.00
2022-12-19T12:55:03.705Z,4908.00
2022-12-19T12:56:05.603Z,4768.00
2022-12-19T12:57:03.696Z,4564.00
2022-12-19T12:58:04.190Z,4296.00
2022-12-19T12:59:03.665Z,4084.00
2022-12-19T13:00:03.620Z,3916.00
2022-12-19T13:01:03.674Z,3796.00
2022-12-19T13:02:03.905Z,3868.00
2022-12-19T13:03:03.809Z,4176.00
2022-12-19T13:04:03.633Z,4468.00
2022-12-19T13:05:03.587Z,4720.00
2022-12-19T13:06:03.578Z,4816.00
2022-12-19T13:07:03.549Z,4820.00
2022-12-19T13:08:03.542Z,4868.00
2022-12-19T13:09:03.530Z,4936.00
2022-12-19T13:10:03.543Z,4944.00
2022-12-19T13:11:03.501Z,5004.00
2022-12-19T13:12:03.510Z,4956.00
2022-12-19T13:13:04.451Z,4888.00
2022-12-19T13:14:03.517Z,4972.00
2022-12-19T13:15:03.477Z,5160.00
2022-12-19T13:16:03.480Z,5440.00
2022-12-19T13:17:03.586Z,5680.00
2022-12-19T13:18:03.439Z,5764.00
2022-12-19T13:19:03.412Z,5816.00
2022-12-19T13:20:03.649Z,5836.00
2022-12-19T13:21:03.415Z,5908.00
2022-12-19T13:22:03.388Z,6028.00
2022-12-19T13:23:03.614Z,6156.00
2022-12-19T13:24:03.384Z,6208.00
2022-12-19T13:25:03.351Z,6112.00
2022-12-19T13:26:03.377Z,5892.00
2022-12-19T13:27:03.321Z,5576.00
2022-12-19T13:28:03.343Z,5272.00
2022-12-19T13:29:03.314Z,5064.00
2022-12-19T13:30:03.292Z,4944.00
2022-12-19T13:31:18.871Z,4856.00
2022-12-19T13:32:03.442Z,4796.00
2022-12-19T13:33:03.322Z,4716.00
2022-12-19T13:34:03.265Z,4624.00
2022-12-19T13:35:16.600Z,4516.00
2022-12-19T13:39:52.110Z,4396.00
2022-12-19T13:40:12.038Z,4320.00
2022-12-19T13:40:20.935Z,4256.00